Time;durP1;ratioP1;P1;durP2;ratioP2;P2;SDS_P1;SDS_P2;PMS_P1;PMS_P2;Temp;Humidity;BMP_temperature;BMP_pressure;BME280_temperature;BME280_humidity;BME280_pressure;Samples;Min_cycle;Max_cycle;Signal;HPM_P1;HPM_P2
2023/01/20 00:00:25;;;;;;;50.95;34.60;;;4.50;99.90;;;;;;2107894;28;20542;-71
2023/01/20 00:01:27;;;;;;;48.03;35.38;;;4.50;99.90;;;;;;2109549;28;20503;-71
2023/01/20 00:02:28;;;;;;;44.13;34.45;;;4.50;99.90;;;;;;2109108;28;20035;-71
2023/01/20 00:03:28;;;;;;;46.00;33.75;;;4.50;99.90;;;;;;2108859;28;20091;-71
2023/01/20 00:04:29;;;;;;;42.67;32.88;;;4.50;99.90;;;;;;2108466;28;20043;-71
2023/01/20 00:05:29;;;;;;;45.22;34.17;;;4.50;99.90;;;;;;2109175;28;20055;-71
2023/01/20 00:06:30;;;;;;;42.25;34.38;;;4.50;99.90;;;;;;2106774;28;20388;-71
2023/01/20 00:07:33;;;;;;;46.25;33.95;;;4.50;99.90;;;;;;2107654;28;20107;-71
2023/01/20 00:08:34;;;;;;;47.15;33.40;;;4.50;99.90;;;;;;2109273;28;20032;-71
2023/01/20 00:09:34;;;;;;;45.08;34.00;;;4.50;99.90;;;;;;2108507;28;20133;-70
2023/01/20 00:10:36;;;;;;;44.10;34.45;;;4.50;99.90;;;;;;2107143;28;20048;-71
2023/01/20 00:11:37;;;;;;;45.42;33.97;;;4.50;99.90;;;;;;2108507;28;20035;-71
2023/01/20 00:12:37;;;;;;;43.05;33.95;;;4.50;99.90;;;;;;2108422;28;21213;-71
2023/01/20 00:13:38;;;;;;;44.58;35.17;;;4.50;99.90;;;;;;2109852;28;20031;-71
2023/01/20 00:14:39;;;;;;;44.45;34.83;;;4.50;99.90;;;;;;2107743;28;20028;-71
2023/01/20 00:15:39;;;;;;;48.78;36.03;;;4.50;99.90;;;;;;2105730;28;20073;-71
2023/01/20 00:16:40;;;;;;;47.72;35.20;;;4.50;99.90;;;;;;2106308;28;20028;-71
2023/01/20 00:17:40;;;;;;;47.13;35.08;;;4.50;99.90;;;;;;2108279;28;20032;-71
2023/01/20 00:18:41;;;;;;;45.60;35.05;;;4.50;99.90;;;;;;2109370;28;20067;-71
2023/01/20 00:19:41;;;;;;;46.85;37.58;;;4.50;99.90;;;;;;2107866;28;20015;-71
2023/01/20 00:20:42;;;;;;;46.60;35.92;;;4.50;99.90;;;;;;2109501;28;20027;-71
2023/01/20 00:21:42;;;;;;;52.47;38.10;;;4.60;99.90;;;;;;2110789;28;20050;-71
2023/01/20 00:22:43;;;;;;;54.38;39.20;;;4.50;99.90;;;;;;2110505;28;20115;-71
2023/01/20 00:23:45;;;;;;;52.17;38.35;;;4.50;99.90;;;;;;2110729;28;20039;-70
2023/01/20 00:24:46;;;;;;;49.55;38.78;;;4.50;99.90;;;;;;2111070;28;20103;-71
2023/01/20 00:25:46;;;;;;;49.72;37.17;;;4.50;99.90;;;;;;2108880;28;20023;-71
2023/01/20 00:26:47;;;;;;;46.90;36.63;;;4.50;99.90;;;;;;2110580;28;20039;-71
2023/01/20 00:27:49;;;;;;;47.80;38.42;;;4.50;99.90;;;;;;2110454;28;20089;-71
2023/01/20 00:28:53;;;;;;;49.25;37.03;;;4.50;99.90;;;;;;2108674;28;20019;-71
2023/01/20 00:29:53;;;;;;;43.90;35.85;;;4.50;99.90;;;;;;2107861;28;20115;-71
2023/01/20 00:30:54;;;;;;;49.55;38.08;;;4.50;99.90;;;;;;2113045;28;20486;-71
2023/01/20 00:31:54;;;;;;;47.40;38.17;;;4.50;99.90;;;;;;2109538;28;20459;-70
2023/01/20 00:32:55;;;;;;;47.15;38.00;;;4.50;99.90;;;;;;2109253;28;20615;-71
2023/01/20 00:33:58;;;;;;;50.03;37.50;;;4.50;99.90;;;;;;2111175;28;20026;-71
2023/01/20 00:34:58;;;;;;;50.05;37.60;;;4.50;99.90;;;;;;2109930;28;20564;-70
2023/01/20 00:36:00;;;;;;;47.78;36.80;;;4.50;99.90;;;;;;2111720;28;20024;-71
2023/01/20 00:37:00;;;;;;;45.38;36.22;;;4.50;99.90;;;;;;2109287;28;20020;-71
2023/01/20 00:38:01;;;;;;;53.10;39.03;;;4.50;99.90;;;;;;2108938;28;20035;-71
2023/01/20 00:39:02;;;;;;;51.30;35.97;;;4.50;99.90;;;;;;2110472;28;20012;-71
2023/01/20 00:40:03;;;;;;;51.28;37.67;;;4.50;99.90;;;;;;2110777;28;20020;-71
2023/01/20 00:41:05;;;;;;;50.70;37.85;;;4.40;99.90;;;;;;2111592;28;20020;-71
2023/01/20 00:42:05;;;;;;;46.55;37.55;;;4.40;99.90;;;;;;2108779;28;20035;-71
2023/01/20 00:43:06;;;;;;;47.55;36.90;;;4.40;99.90;;;;;;2111508;28;20011;-71
2023/01/20 00:44:06;;;;;;;54.40;37.53;;;4.40;99.90;;;;;;2110863;28;20117;-71
2023/01/20 00:45:07;;;;;;;47.95;37.88;;;4.40;99.90;;;;;;2110610;28;20020;-71
2023/01/20 00:46:08;;;;;;;49.28;37.13;;;4.40;99.90;;;;;;2108531;28;20107;-71
2023/01/20 00:47:08;;;;;;;45.97;38.17;;;4.40;99.90;;;;;;2110709;28;20020;-71
2023/01/20 00:48:09;;;;;;;46.97;37.10;;;4.40;99.90;;;;;;2108989;28;20031;-71
2023/01/20 00:49:10;;;;;;;45.42;36.60;;;4.40;99.90;;;;;;2107601;28;20024;-71
2023/01/20 00:50:10;;;;;;;51.53;38.08;;;4.40;99.90;;;;;;2110605;28;20024;-71
2023/01/20 00:51:11;;;;;;;51.10;39.70;;;4.40;99.90;;;;;;2109600;28;20024;-71
2023/01/20 00:52:12;;;;;;;56.00;38.92;;;4.40;99.90;;;;;;2109381;28;20670;-71
2023/01/20 00:53:12;;;;;;;52.20;40.33;;;4.40;99.90;;;;;;2108881;28;20751;-71
2023/01/20 00:54:13;;;;;;;51.20;39.85;;;4.40;99.90;;;;;;2110743;28;20039;-71
2023/01/20 00:55:13;;;;;;;49.47;37.90;;;4.40;99.90;;;;;;2111271;28;20028;-71
2023/01/20 00:56:14;;;;;;;50.13;37.95;;;4.40;99.90;;;;;;2111355;28;20023;-71
2023/01/20 00:57:14;;;;;;;55.47;39.97;;;4.40;99.90;;;;;;2109718;28;20020;-71
2023/01/20 00:58:15;;;;;;;49.60;37.92;;;4.40;99.90;;;;;;2110907;28;20055;-71
2023/01/20 00:59:16;;;;;;;51.58;40.17;;;4.40;99.90;;;;;;2111310;27;20027;-71
2023/01/20 01:00:20;;;;;;;54.97;41.10;;;4.40;99.90;;;;;;2109952;27;20067;-71
2023/01/20 01:01:21;;;;;;;48.42;38.00;;;4.40;99.90;;;;;;2108699;28;20016;-71
2023/01/20 01:02:22;;;;;;;52.13;40.50;;;4.40;99.90;;;;;;2109279;28;20035;-71
2023/01/20 01:03:22;;;;;;;53.40;41.05;;;4.40;99.90;;;;;;2109682;28;20036;-71
2023/01/20 01:04:23;;;;;;;51.40;39.40;;;4.40;99.90;;;;;;2109982;28;20559;-71
2023/01/20 01:05:23;;;;;;;49.90;38.88;;;4.40;99.90;;;;;;2108729;28;20508;-71
2023/01/20 01:06:24;;;;;;;50.63;39.47;;;4.40;99.90;;;;;;2108977;28;20081;-71
2023/01/20 01:07:24;;;;;;;49.20;38.80;;;4.30;99.90;;;;;;2108817;28;20042;-71
2023/01/20 01:08:25;;;;;;;49.38;38.22;;;4.40;99.90;;;;;;2110041;28;20035;-71
2023/01/20 01:09:25;;;;;;;53.90;40.78;;;4.30;99.90;;;;;;2109727;28;20055;-70
2023/01/20 01:10:26;;;;;;;50.75;39.65;;;4.30;99.90;;;;;;2110343;28;20116;-70
2023/01/20 01:11:26;;;;;;;52.78;40.92;;;4.30;99.90;;;;;;2109432;28;20096;-71
2023/01/20 01:12:27;;;;;;;51.53;39.10;;;4.30;99.90;;;;;;2109491;28;20031;-71
2023/01/20 01:13:27;;;;;;;51.08;38.33;;;4.30;99.90;;;;;;2110564;28;20024;-71
2023/01/20 01:14:30;;;;;;;54.80;41.30;;;4.30;99.90;;;;;;2110374;28;20379;-71
2023/01/20 01:15:31;;;;;;;54.40;40.40;;;4.30;99.90;;;;;;2110058;28;20020;-71
2023/01/20 01:16:32;;;;;;;53.38;39.25;;;4.30;99.90;;;;;;2107819;28;20016;-71
2023/01/20 01:17:33;;;;;;;55.58;39.50;;;4.30;99.90;;;;;;2109329;28;20044;-71
2023/01/20 01:18:33;;;;;;;53.15;40.30;;;4.30;99.90;;;;;;2109600;28;20012;-71
2023/01/20 01:19:33;;;;;;;50.15;39.45;;;4.30;99.90;;;;;;2109979;28;20027;-71
2023/01/20 01:20:38;;;;;;;56.10;41.15;;;4.30;99.90;;;;;;2109905;28;20034;-71
2023/01/20 01:21:38;;;;;;;53.13;38.75;;;4.30;99.90;;;;;;2108608;28;20016;-71
2023/01/20 01:22:39;;;;;;;48.45;38.72;;;4.30;99.90;;;;;;2111004;28;20097;-70
2023/01/20 01:23:40;;;;;;;55.90;39.65;;;4.30;99.90;;;;;;2111319;28;20020;-71
2023/01/20 01:24:43;;;;;;;55.13;40.08;;;4.30;99.90;;;;;;2109847;28;20042;-71
2023/01/20 01:25:44;;;;;;;57.40;40.92;;;4.30;99.90;;;;;;2108304;28;21201;-71
2023/01/20 01:26:44;;;;;;;53.83;38.83;;;4.30;99.90;;;;;;2108839;28;20677;-71
2023/01/20 01:27:45;;;;;;;50.28;38.22;;;4.30;99.90;;;;;;2111464;28;20035;-71
2023/01/20 01:28:49;;;;;;;51.60;37.83;;;4.30;99.90;;;;;;2108967;27;20031;-71
2023/01/20 01:29:49;;;;;;;53.33;38.95;;;4.30;99.90;;;;;;2108021;28;20462;-71
2023/01/20 01:30:50;;;;;;;54.17;39.63;;;4.30;99.90;;;;;;2109467;28;20040;-71
2023/01/20 01:31:50;;;;;;;53.08;38.90;;;4.30;99.90;;;;;;2109520;28;20032;-71
2023/01/20 01:32:51;;;;;;;51.60;39.35;;;4.30;99.90;;;;;;2110984;28;20038;-71
2023/01/20 01:33:51;;;;;;;49.72;38.28;;;4.30;99.90;;;;;;2109669;28;20028;-71
2023/01/20 01:34:52;;;;;;;51.20;39.08;;;4.30;99.90;;;;;;2108817;28;20068;-71
2023/01/20 01:35:57;;;;;;;55.85;39.72;;;4.30;99.90;;;;;;2109851;28;20380;-71
2023/01/20 01:36:57;;;;;;;53.80;40.40;;;4.30;99.90;;;;;;2110552;28;20016;-71
2023/01/20 01:37:58;;;;;;;56.10;40.33;;;4.30;99.90;;;;;;2108115;28;20420;-71
2023/01/20 01:38:58;;;;;;;53.08;39.83;;;4.30;99.90;;;;;;2109881;28;20023;-71
2023/01/20 01:39:59;;;;;;;58.85;39.40;;;4.30;99.90;;;;;;2108286;28;20095;-71
2023/01/20 01:41:00;;;;;;;55.05;38.75;;;4.30;99.90;;;;;;2110411;28;20057;-71
2023/01/20 01:42:00;;;;;;;54.78;39.53;;;4.20;99.90;;;;;;2110833;28;20027;-71
2023/01/20 01:43:01;;;;;;;50.90;38.65;;;4.20;99.90;;;;;;2109973;28;20028;-71
2023/01/20 01:44:11;;;;;;;54.15;39.15;;;4.20;99.90;;;;;;2110734;27;20115;-71
2023/01/20 01:45:11;;;;;;;50.85;37.38;;;4.20;99.90;;;;;;2109287;28;20466;-71
2023/01/20 01:46:12;;;;;;;54.83;37.10;;;4.20;99.90;;;;;;2109845;28;20441;-71
2023/01/20 01:47:12;;;;;;;51.55;37.38;;;4.20;99.90;;;;;;2110198;28;21827;-71
2023/01/20 01:48:13;;;;;;;50.45;36.97;;;4.20;99.90;;;;;;2110033;28;20031;-71
2023/01/20 01:49:20;;;;;;;49.65;37.22;;;4.20;99.90;;;;;;2111886;28;20046;-71
2023/01/20 01:50:35;;;;;;;49.03;35.00;;;4.20;99.90;;;;;;2110204;28;20019;-71
2023/01/20 01:51:52;;;;;;;44.03;33.90;;;4.20;99.90;;;;;;2109444;28;20016;-71
2023/01/20 01:52:54;;;;;;;48.03;34.47;;;4.20;99.90;;;;;;2108859;28;20471;-71
2023/01/20 01:54:03;;;;;;;47.30;35.55;;;4.20;99.90;;;;;;2109258;28;20472;-71
2023/01/20 01:55:04;;;;;;;50.88;36.45;;;4.10;99.90;;;;;;2110582;28;20028;-71
2023/01/20 01:56:05;;;;;;;51.58;37.60;;;4.10;99.90;;;;;;2108637;28;20047;-71
2023/01/20 01:57:07;;;;;;;47.10;36.83;;;4.10;99.90;;;;;;2112176;27;20457;-71
2023/01/20 01:58:11;;;;;;;49.67;38.33;;;4.10;99.90;;;;;;2112656;27;20019;-71
2023/01/20 01:59:13;;;;;;;49.63;36.78;;;4.10;99.90;;;;;;2110573;28;20040;-71
2023/01/20 02:00:14;;;;;;;53.45;39.55;;;4.10;99.90;;;;;;2109800;28;20023;-71
2023/01/20 02:01:15;;;;;;;52.95;37.40;;;4.10;99.90;;;;;;2110221;28;20036;-71
2023/01/20 02:02:16;;;;;;;51.92;38.10;;;4.10;99.90;;;;;;2110030;27;20024;-71
2023/01/20 02:03:17;;;;;;;49.45;36.28;;;4.20;99.90;;;;;;2108327;28;20581;-71
2023/01/20 02:04:27;;;;;;;54.60;38.03;;;4.20;99.90;;;;;;2109868;27;20023;-71
2023/01/20 02:05:29;;;;;;;51.53;37.72;;;4.20;99.90;;;;;;2109659;28;20036;-71
2023/01/20 02:06:34;;;;;;;52.53;36.05;;;4.20;99.90;;;;;;2108513;28;20028;-71
2023/01/20 02:07:35;;;;;;;48.40;39.70;;;4.20;99.90;;;;;;2114750;27;20035;-71
2023/01/20 02:08:36;;;;;;;52.78;37.38;;;4.20;99.90;;;;;;2118602;27;20023;-71
2023/01/20 02:09:37;;;;;;;52.38;37.63;;;4.20;99.90;;;;;;2108958;28;20111;-71
2023/01/20 02:10:38;;;;;;;46.72;36.47;;;4.20;99.90;;;;;;2108908;28;20379;-71
2023/01/20 02:11:47;;;;;;;47.25;37.22;;;4.20;99.90;;;;;;2108938;28;20015;-71
2023/01/20 02:12:50;;;;;;;55.65;39.75;;;4.20;99.90;;;;;;2111170;28;20020;-71
2023/01/20 02:13:51;;;;;;;49.50;37.05;;;4.20;99.90;;;;;;2108047;28;20054;-71
2023/01/20 02:14:54;;;;;;;50.28;36.95;;;4.20;99.90;;;;;;2108666;28;20024;-71
2023/01/20 02:16:21;;;;;;;52.08;36.08;;;4.20;99.90;;;;;;2110164;28;20664;-71
2023/01/20 02:17:27;;;;;;;47.40;36.00;;;4.20;99.90;;;;;;2102542;28;20043;-71
2023/01/20 02:18:40;;;;;;;48.88;34.72;;;4.20;99.90;;;;;;2112391;27;20016;-71
2023/01/20 02:19:52;;;;;;;49.20;34.78;;;4.20;99.90;;;;;;2111182;27;20043;-71
2023/01/20 02:21:04;;;;;;;47.58;34.78;;;4.20;99.90;;;;;;2108657;28;20047;-70
2023/01/20 02:22:26;;;;;;;47.30;35.13;;;4.20;99.90;;;;;;2109750;28;20574;-71
2023/01/20 02:24:04;;;;;;;47.42;34.30;;;4.20;99.90;;;;;;2107960;28;20543;-72
2023/01/20 02:25:23;;;;;;;47.10;36.00;;;4.20;99.90;;;;;;2108409;28;20027;-71
2023/01/20 02:26:39;;;;;;;47.13;35.63;;;4.20;99.90;;;;;;2109694;28;20036;-71
2023/01/20 02:28:02;;;;;;;59.45;36.05;;;4.20;99.90;;;;;;2108239;28;20103;-71
2023/01/20 02:29:35;;;;;;;47.55;36.58;;;4.20;99.90;;;;;;2109682;28;20039;-70
2023/01/20 02:31:05;;;;;;;50.47;36.05;;;4.20;99.90;;;;;;2108724;28;20713;-70
2023/01/20 02:32:33;;;;;;;44.30;32.53;;;4.20;99.90;;;;;;2109205;28;20020;-70
2023/01/20 02:33:43;;;;;;;50.90;34.75;;;4.10;99.90;;;;;;2109075;28;20135;-71
2023/01/20 02:34:58;;;;;;;50.60;35.23;;;4.20;99.90;;;;;;2109420;28;20031;-71
2023/01/20 02:36:13;;;;;;;44.65;33.70;;;4.10;99.90;;;;;;2108532;28;20032;-71
2023/01/20 02:37:32;;;;;;;46.08;32.75;;;4.20;99.90;;;;;;2107407;28;20111;-71
2023/01/20 02:38:59;;;;;;;48.65;35.30;;;4.20;99.90;;;;;;2110450;28;20066;-71
2023/01/20 02:40:08;;;;;;;49.53;35.58;;;4.20;99.90;;;;;;2107021;28;20027;-71
2023/01/20 02:41:19;;;;;;;46.65;35.22;;;4.20;99.90;;;;;;2111562;28;20044;-71
2023/01/20 02:42:30;;;;;;;48.22;36.75;;;4.20;99.90;;;;;;2109237;28;20031;-71
2023/01/20 02:43:56;;;;;;;43.42;34.47;;;4.20;99.90;;;;;;2109829;28;20492;-71
2023/01/20 02:45:23;;;;;;;48.13;35.97;;;4.20;99.90;;;;;;2108730;28;20065;-71
2023/01/20 02:46:42;;;;;;;51.10;37.83;;;4.20;99.90;;;;;;2109626;28;20077;-71
2023/01/20 02:47:56;;;;;;;54.45;39.30;;;4.20;99.90;;;;;;2108958;27;20052;-71
2023/01/20 02:49:21;;;;;;;56.15;40.40;;;4.30;99.90;;;;;;2109771;28;20130;-71
2023/01/20 02:50:30;;;;;;;51.33;38.45;;;4.20;99.90;;;;;;2109096;28;20032;-71
2023/01/20 02:51:40;;;;;;;52.60;38.25;;;4.20;99.90;;;;;;2107876;28;20076;-71
2023/01/20 02:52:45;;;;;;;55.00;38.63;;;4.20;99.90;;;;;;2107645;28;20034;-71
2023/01/20 02:53:58;;;;;;;55.65;40.15;;;4.20;99.90;;;;;;2109082;28;20039;-71
2023/01/20 02:55:07;;;;;;;53.80;39.92;;;4.20;99.90;;;;;;2109882;28;20550;-71
2023/01/20 02:56:08;;;;;;;54.33;38.65;;;4.30;99.90;;;;;;2108980;28;20027;-71
2023/01/20 02:57:13;;;;;;;54.20;39.20;;;4.30;99.90;;;;;;2109560;27;20015;-71
2023/01/20 02:58:21;;;;;;;54.28;38.90;;;4.30;99.90;;;;;;2107995;28;20539;-71
2023/01/20 02:59:28;;;;;;;50.85;37.03;;;4.30;99.90;;;;;;2108197;28;20044;-71
2023/01/20 03:00:35;;;;;;;57.97;39.38;;;4.30;99.90;;;;;;2109348;28;20032;-71
2023/01/20 03:01:41;;;;;;;54.70;39.72;;;4.30;99.90;;;;;;2110153;27;21083;-71
2023/01/20 03:02:43;;;;;;;54.63;40.75;;;4.30;99.90;;;;;;2107853;28;20035;-71
2023/01/20 03:03:48;;;;;;;54.05;39.90;;;4.30;99.90;;;;;;2107004;28;20048;-70
2023/01/20 03:04:54;;;;;;;58.28;42.42;;;4.30;99.90;;;;;;2108404;28;20126;-71
2023/01/20 03:05:58;;;;;;;56.55;41.70;;;4.20;99.90;;;;;;2106754;28;20024;-71
2023/01/20 03:07:00;;;;;;;61.00;41.65;;;4.20;99.90;;;;;;2107508;28;20039;-70
2023/01/20 03:08:06;;;;;;;55.03;40.53;;;4.20;99.90;;;;;;2109257;28;20102;-71
2023/01/20 03:09:11;;;;;;;60.67;41.70;;;4.20;99.90;;;;;;2109245;28;20023;-71
2023/01/20 03:10:15;;;;;;;61.83;41.97;;;4.20;99.90;;;;;;2106872;28;20047;-71
2023/01/20 03:11:15;;;;;;;62.65;42.83;;;4.20;99.90;;;;;;2108657;28;20557;-71
2023/01/20 03:12:21;;;;;;;57.95;42.58;;;4.20;99.90;;;;;;2109745;28;20375;-71
2023/01/20 03:13:29;;;;;;;58.28;42.67;;;4.20;99.90;;;;;;2107777;28;20024;-71
2023/01/20 03:14:30;;;;;;;57.60;41.85;;;4.20;99.90;;;;;;2109128;28;20500;-71
2023/01/20 03:15:53;;;;;;;59.42;41.72;;;4.20;99.90;;;;;;2108024;28;20567;-71
2023/01/20 03:16:54;;;;;;;61.92;43.60;;;4.20;99.90;;;;;;2107991;28;20054;-71
2023/01/20 03:17:54;;;;;;;62.65;43.67;;;4.20;99.90;;;;;;2108585;28;20024;-71
2023/01/20 03:18:55;;;;;;;66.00;44.15;;;4.20;99.90;;;;;;2108168;28;20078;-71
2023/01/20 03:19:56;;;;;;;66.82;45.42;;;4.20;99.90;;;;;;2111360;28;20055;-71
2023/01/20 03:20:57;;;;;;;59.72;41.33;;;4.20;99.90;;;;;;2108816;28;20077;-71
2023/01/20 03:21:58;;;;;;;62.90;45.15;;;4.20;99.90;;;;;;2108696;28;20031;-71
2023/01/20 03:22:58;;;;;;;64.72;44.10;;;4.20;99.90;;;;;;2109006;28;20025;-71
2023/01/20 03:24:03;;;;;;;62.10;43.25;;;4.20;99.90;;;;;;2108842;28;20619;-71
2023/01/20 03:25:05;;;;;;;66.72;45.63;;;4.20;99.90;;;;;;2108935;28;20417;-71
2023/01/20 03:26:09;;;;;;;63.08;44.30;;;4.20;99.90;;;;;;2106984;28;20042;-71
2023/01/20 03:27:11;;;;;;;62.70;44.70;;;4.20;99.90;;;;;;2107786;28;20379;-71
2023/01/20 03:28:12;;;;;;;64.38;44.47;;;4.20;99.90;;;;;;2110686;28;20092;-71
2023/01/20 03:29:14;;;;;;;61.47;43.25;;;4.20;99.90;;;;;;2108184;28;20054;-71
2023/01/20 03:30:16;;;;;;;61.83;43.55;;;4.20;99.90;;;;;;2108020;28;20031;-71
2023/01/20 03:31:21;;;;;;;56.85;40.25;;;4.30;99.90;;;;;;2108349;28;20019;-71
2023/01/20 03:32:25;;;;;;;59.88;44.42;;;4.30;99.90;;;;;;2105561;28;20035;-70
2023/01/20 03:33:26;;;;;;;68.05;43.60;;;4.30;99.90;;;;;;2107516;28;20016;-71
2023/01/20 03:34:30;;;;;;;61.67;41.53;;;4.30;99.90;;;;;;2110062;28;20028;-71
2023/01/20 03:35:31;;;;;;;58.03;42.70;;;4.30;99.90;;;;;;2108715;28;20020;-71
2023/01/20 03:36:33;;;;;;;56.28;40.10;;;4.30;99.90;;;;;;2109751;28;20028;-70
2023/01/20 03:37:33;;;;;;;61.13;40.45;;;4.30;99.90;;;;;;2109859;28;20019;-71
2023/01/20 03:38:34;;;;;;;54.03;40.15;;;4.30;99.90;;;;;;2110405;28;20039;-71
2023/01/20 03:39:38;;;;;;;56.35;39.75;;;4.30;99.90;;;;;;2108931;28;20111;-71
2023/01/20 03:40:47;;;;;;;56.15;39.70;;;4.30;99.90;;;;;;2108249;28;20019;-71
2023/01/20 03:42:09;;;;;;;50.65;37.08;;;4.30;99.90;;;;;;2108216;28;20085;-71
2023/01/20 03:43:24;;;;;;;52.15;38.38;;;4.30;99.90;;;;;;2109627;28;20080;-70
2023/01/20 03:44:32;;;;;;;49.25;36.75;;;4.20;99.90;;;;;;2109170;28;20023;-71
2023/01/20 03:45:45;;;;;;;52.55;36.22;;;4.20;99.90;;;;;;2108920;28;20028;-71
2023/01/20 03:46:56;;;;;;;47.92;35.67;;;4.20;99.90;;;;;;2113410;27;20034;-71
2023/01/20 03:48:16;;;;;;;50.63;36.47;;;4.20;99.90;;;;;;2111177;27;20035;-71
2023/01/20 03:49:26;;;;;;;48.63;36.13;;;4.20;99.90;;;;;;2106330;28;20038;-71
2023/01/20 03:50:56;;;;;;;50.25;37.13;;;4.20;99.90;;;;;;2108042;28;20032;-70
2023/01/20 03:52:24;;;;;;;46.60;35.55;;;4.20;99.90;;;;;;2107330;28;20043;-70
2023/01/20 03:53:50;;;;;;;49.80;36.42;;;4.20;99.90;;;;;;2108080;28;20111;-70
2023/01/20 03:54:57;;;;;;;48.28;36.58;;;4.20;99.90;;;;;;2107267;28;20023;-71
2023/01/20 03:56:04;;;;;;;46.70;35.55;;;4.20;99.90;;;;;;2106659;28;20092;-71
2023/01/20 03:57:11;;;;;;;52.67;36.63;;;4.20;99.90;;;;;;2105998;28;20028;-71
2023/01/20 03:58:16;;;;;;;44.83;33.28;;;4.20;99.90;;;;;;2108856;28;20053;-71
2023/01/20 03:59:19;;;;;;;45.17;33.70;;;4.20;99.90;;;;;;2107795;28;20027;-71
2023/01/20 04:00:21;;;;;;;50.25;35.75;;;4.20;99.90;;;;;;2108738;28;20411;-71
2023/01/20 04:01:28;;;;;;;48.00;34.20;;;4.10;99.90;;;;;;2109366;28;20154;-71
2023/01/20 04:02:32;;;;;;;49.28;35.35;;;4.20;99.90;;;;;;2106270;28;20032;-71
2023/01/20 04:03:37;;;;;;;46.72;35.38;;;4.20;99.90;;;;;;2109167;28;20538;-71
2023/01/20 04:04:40;;;;;;;49.33;34.25;;;4.20;99.90;;;;;;2109410;28;20035;-71
2023/01/20 04:05:42;;;;;;;47.28;36.13;;;4.20;99.90;;;;;;2105969;28;20390;-71
2023/01/20 04:06:44;;;;;;;45.00;34.92;;;4.10;99.90;;;;;;2107724;28;20041;-71
2023/01/20 04:07:46;;;;;;;50.28;36.17;;;4.20;99.90;;;;;;2109490;28;20467;-71
2023/01/20 04:08:55;;;;;;;48.65;34.97;;;4.20;99.90;;;;;;2108252;28;20039;-71
2023/01/20 04:10:00;;;;;;;43.13;34.13;;;4.20;99.90;;;;;;2108030;28;20530;-71
2023/01/20 04:11:05;;;;;;;42.47;32.00;;;4.10;99.90;;;;;;2108820;28;20139;-71
2023/01/20 04:12:06;;;;;;;46.95;33.75;;;4.10;99.90;;;;;;2107366;27;20023;-71
2023/01/20 04:13:06;;;;;;;47.08;33.40;;;4.10;99.90;;;;;;2110386;28;20027;-71
2023/01/20 04:14:08;;;;;;;44.63;34.00;;;4.10;99.90;;;;;;2108189;28;20034;-71
2023/01/20 04:15:09;;;;;;;47.78;34.38;;;4.10;99.90;;;;;;2107444;28;20379;-71
2023/01/20 04:16:14;;;;;;;45.25;32.38;;;4.10;99.90;;;;;;2108986;28;20020;-71
2023/01/20 04:17:15;;;;;;;50.70;35.28;;;4.10;99.90;;;;;;2107320;28;20039;-71
2023/01/20 04:18:21;;;;;;;46.47;33.35;;;4.10;99.90;;;;;;2108240;28;20040;-71
2023/01/20 04:19:21;;;;;;;48.17;34.03;;;4.10;99.90;;;;;;2107937;28;20501;-71
2023/01/20 04:20:23;;;;;;;46.78;34.28;;;4.10;99.90;;;;;;2107603;28;20058;-70
2023/01/20 04:21:32;;;;;;;45.75;35.15;;;4.10;99.90;;;;;;2107507;28;20077;-71
2023/01/20 04:22:39;;;;;;;49.67;33.67;;;4.10;99.90;;;;;;2108830;28;20070;-71
2023/01/20 04:23:50;;;;;;;47.83;34.75;;;4.10;99.90;;;;;;2108209;28;20639;-71
2023/01/20 04:24:56;;;;;;;44.65;33.95;;;4.20;99.90;;;;;;2108718;28;20031;-71
2023/01/20 04:25:57;;;;;;;48.78;35.05;;;4.10;99.90;;;;;;2106938;28;20062;-70
2023/01/20 04:26:57;;;;;;;45.13;34.35;;;4.10;99.90;;;;;;2109728;28;20031;-71
2023/01/20 04:27:58;;;;;;;44.00;32.63;;;4.10;99.90;;;;;;2108826;28;20395;-71
2023/01/20 04:28:58;;;;;;;43.55;32.63;;;4.10;99.90;;;;;;2108559;28;20398;-71
2023/01/20 04:29:59;;;;;;;45.00;32.70;;;4.10;99.90;;;;;;2106591;28;20023;-71
2023/01/20 04:30:59;;;;;;;47.08;35.17;;;4.10;99.90;;;;;;2105499;28;20027;-71
2023/01/20 04:32:01;;;;;;;49.60;34.10;;;4.10;99.90;;;;;;2109174;28;20107;-71
2023/01/20 04:33:02;;;;;;;44.50;33.05;;;4.20;99.90;;;;;;2108816;28;20020;-71
2023/01/20 04:34:03;;;;;;;43.20;32.38;;;4.10;99.90;;;;;;2108890;28;20051;-71
2023/01/20 04:35:04;;;;;;;50.83;34.45;;;4.10;99.90;;;;;;2107475;28;20035;-71
2023/01/20 04:36:06;;;;;;;49.03;32.67;;;4.10;99.90;;;;;;2109797;28;20103;-71
2023/01/20 04:37:06;;;;;;;43.38;31.85;;;4.10;99.90;;;;;;2107425;28;20478;-71
2023/01/20 04:38:07;;;;;;;43.65;31.75;;;4.10;99.90;;;;;;2109224;28;20375;-71
2023/01/20 04:39:07;;;;;;;42.38;30.25;;;4.10;99.90;;;;;;2107880;28;20032;-71
2023/01/20 04:40:09;;;;;;;43.92;32.58;;;4.10;99.90;;;;;;2105713;28;20019;-71
2023/01/20 04:41:11;;;;;;;48.13;32.33;;;4.10;99.90;;;;;;2108316;28;20032;-71
2023/01/20 04:42:12;;;;;;;41.53;31.40;;;4.10;99.90;;;;;;2108343;28;20096;-71
2023/01/20 04:43:12;;;;;;;45.38;33.30;;;4.10;99.90;;;;;;2109337;28;20019;-71
2023/01/20 04:44:13;;;;;;;44.95;32.47;;;4.10;99.90;;;;;;2106755;28;20024;-71
2023/01/20 04:45:15;;;;;;;45.88;32.80;;;4.10;99.90;;;;;;2107369;28;20122;-71
2023/01/20 04:46:15;;;;;;;43.95;31.83;;;4.10;99.90;;;;;;2110312;28;20024;-71
2023/01/20 04:47:16;;;;;;;42.47;32.15;;;4.10;99.90;;;;;;2101590;28;20068;-71
2023/01/20 04:48:17;;;;;;;44.00;31.63;;;4.10;99.90;;;;;;2108427;28;20020;-71
2023/01/20 04:49:17;;;;;;;46.13;31.60;;;4.10;99.90;;;;;;2109436;28;20106;-71
2023/01/20 04:50:18;;;;;;;43.05;31.58;;;4.10;99.90;;;;;;2110058;28;20024;-71
2023/01/20 04:51:18;;;;;;;48.47;33.10;;;4.10;99.90;;;;;;2109718;28;20020;-71
2023/01/20 04:52:19;;;;;;;41.28;31.95;;;4.20;99.90;;;;;;2108916;28;20080;-71
2023/01/20 04:53:19;;;;;;;40.22;31.33;;;4.10;99.90;;;;;;2107913;28;20012;-71
2023/01/20 04:54:20;;;;;;;43.67;32.15;;;4.10;99.90;;;;;;2107239;28;20049;-71
2023/01/20 04:55:20;;;;;;;45.35;32.78;;;4.10;99.90;;;;;;2107682;28;20049;-71
2023/01/20 04:56:21;;;;;;;47.08;32.95;;;4.20;99.90;;;;;;2109366;28;20028;-71
2023/01/20 04:57:21;;;;;;;47.88;33.65;;;4.10;99.90;;;;;;2109561;28;20022;-71
2023/01/20 04:58:22;;;;;;;44.45;32.05;;;4.10;99.90;;;;;;2108695;28;20028;-71
2023/01/20 04:59:23;;;;;;;45.00;32.65;;;4.10;99.90;;;;;;2107114;28;20139;-71
2023/01/20 05:00:23;;;;;;;46.33;33.25;;;4.10;99.90;;;;;;2109689;28;20046;-71
2023/01/20 05:01:24;;;;;;;45.30;33.58;;;4.10;99.90;;;;;;2108984;28;20926;-71
2023/01/20 05:02:24;;;;;;;48.40;34.55;;;4.10;99.90;;;;;;2108274;28;20163;-71
2023/01/20 05:03:25;;;;;;;54.58;35.88;;;4.10;99.90;;;;;;2104511;28;20027;-71
2023/01/20 05:04:25;;;;;;;53.80;36.53;;;4.10;99.90;;;;;;2108086;28;20044;-71
2023/01/20 05:05:26;;;;;;;51.72;35.90;;;4.10;99.90;;;;;;2107598;28;20036;-71
2023/01/20 05:06:27;;;;;;;46.75;34.65;;;4.10;99.90;;;;;;2107160;28;20056;-71
2023/01/20 05:07:27;;;;;;;49.33;35.45;;;4.10;99.90;;;;;;2109919;28;20114;-71
2023/01/20 05:08:28;;;;;;;48.03;35.30;;;4.10;99.90;;;;;;2109395;28;20032;-71
2023/01/20 05:09:28;;;;;;;49.22;36.05;;;4.10;99.90;;;;;;2110137;28;20050;-71
2023/01/20 05:10:30;;;;;;;54.70;37.45;;;4.10;99.90;;;;;;2109501;28;20126;-71
2023/01/20 05:11:30;;;;;;;49.15;35.17;;;4.10;99.90;;;;;;2109648;28;20039;-71
2023/01/20 05:12:31;;;;;;;51.20;37.08;;;4.10;99.90;;;;;;2109808;28;20035;-71
2023/01/20 05:13:37;;;;;;;49.67;36.38;;;4.10;99.90;;;;;;2109768;27;20033;-71
2023/01/20 05:14:37;;;;;;;53.63;36.53;;;4.10;99.90;;;;;;2110458;28;20015;-71
2023/01/20 05:15:39;;;;;;;50.67;36.35;;;4.10;99.90;;;;;;2111247;27;20566;-71
2023/01/20 05:16:40;;;;;;;50.47;35.78;;;4.10;99.90;;;;;;2109990;28;20073;-71
2023/01/20 05:17:40;;;;;;;54.28;38.35;;;4.10;99.90;;;;;;2108257;28;20023;-71
2023/01/20 05:18:41;;;;;;;51.97;37.72;;;4.10;99.90;;;;;;2107432;28;20403;-71
2023/01/20 05:19:42;;;;;;;48.78;36.10;;;4.10;99.90;;;;;;2107125;28;20032;-70
2023/01/20 05:20:47;;;;;;;53.67;37.78;;;4.10;99.90;;;;;;2108501;28;20528;-70
2023/01/20 05:21:47;;;;;;;50.95;36.10;;;4.10;99.90;;;;;;2108366;28;20034;-71
2023/01/20 05:22:48;;;;;;;50.92;37.20;;;4.10;99.90;;;;;;2108874;28;20031;-71
2023/01/20 05:23:48;;;;;;;48.65;35.53;;;4.10;99.90;;;;;;2108581;28;20049;-71
2023/01/20 05:24:49;;;;;;;51.17;36.55;;;4.10;99.90;;;;;;2109843;28;20032;-71
2023/01/20 05:25:51;;;;;;;58.95;37.47;;;4.10;99.90;;;;;;2109905;27;20980;-71
2023/01/20 05:26:51;;;;;;;48.83;34.78;;;4.10;99.90;;;;;;2106741;28;20391;-71
2023/01/20 05:27:52;;;;;;;49.50;36.58;;;4.10;99.90;;;;;;2107872;28;20074;-71
2023/01/20 05:28:52;;;;;;;52.22;37.08;;;4.10;99.90;;;;;;2109716;27;20035;-71